Chapais Airport


Codes: CYMT/YMT
Name: Chapais Airport
City: Chibougamau
Country: Canada
Elevation: 1270 ft.
Wikipedia:

Photos at Chapais Airport


   Photos courtesy of SpottingLog. You can add your own sightings and photos by signing up for a free trial today.



No photos found.

Weather at Chapais Airport


Time (UTC)DescriptionTempratureWindCloud coverageVisibilityPressureHumidity
26-Jun-2024 00:00Overcast Clouds25°C16 mph, SW95%10000m996hPa45%
26-Jun-2024 03:00Light Rain20°C16 mph, SW99%10000m995hPa72%
26-Jun-2024 06:00Moderate Rain14°C4 mph, SW99%10000m994hPa97%
26-Jun-2024 09:00Light Rain12°C13 mph, NW87%10000m997hPa95%
26-Jun-2024 12:00Light Rain8°C11 mph, NW94%2266m1002hPa95%
26-Jun-2024 15:00Overcast Clouds9°C13 mph, NW100%10000m1005hPa82%
26-Jun-2024 18:00Overcast Clouds14°C9 mph, NW88%10000m1005hPa47%
26-Jun-2024 21:00Broken Clouds17°C11 mph, NW69%10000m1005hPa37%
27-Jun-2024 00:00Broken Clouds13°C4 mph, NE76%10000m1006hPa53%
27-Jun-2024 03:00Overcast Clouds10°C7 mph, NW98%10000m1007hPa66%
27-Jun-2024 06:00Overcast Clouds6°C4 mph, NW86%10000m1008hPa86%
27-Jun-2024 09:00Overcast Clouds7°C4 mph, NW100%10000m1008hPa77%
27-Jun-2024 12:00Overcast Clouds8°C7 mph, NW100%10000m1009hPa68%
27-Jun-2024 15:00Overcast Clouds13°C9 mph, NW98%10000m1008hPa49%
27-Jun-2024 18:00Overcast Clouds15°C9 mph, NW99%10000m1008hPa34%
27-Jun-2024 21:00Overcast Clouds13°C11 mph, NW100%10000m1010hPa42%
28-Jun-2024 00:00Overcast Clouds10°C9 mph, NW88%10000m1012hPa50%
28-Jun-2024 03:00Clear Sky5°C4 mph, W7%10000m1014hPa69%
28-Jun-2024 06:00Clear Sky4°C4 mph, W6%10000m1016hPa74%
28-Jun-2024 09:00Clear Sky3°C4 mph, SW4%10000m1017hPa79%
28-Jun-2024 12:00Few Clouds11°C7 mph, SW22%10000m1017hPa52%
28-Jun-2024 15:00Overcast Clouds17°C9 mph, SW88%10000m1015hPa39%
28-Jun-2024 18:00Overcast Clouds20°C11 mph, SW94%10000m1013hPa31%
28-Jun-2024 21:00Overcast Clouds21°C13 mph, SW100%10000m1011hPa31%
29-Jun-2024 00:00Overcast Clouds17°C11 mph, SW100%10000m1012hPa46%
29-Jun-2024 03:00Light Rain11°C7 mph, SW100%10000m1014hPa95%
29-Jun-2024 06:00Light Rain11°C9 mph, S100%10000m1012hPa94%
29-Jun-2024 09:00Overcast Clouds12°C9 mph, S100%10000m1010hPa93%
29-Jun-2024 12:00Light Rain12°C11 mph, S100%10000m1008hPa94%
29-Jun-2024 15:00Light Rain13°C11 mph, S100%10000m1005hPa97%
29-Jun-2024 18:00Light Rain15°C11 mph, S100%10000m1002hPa95%
29-Jun-2024 21:00Moderate Rain17°C13 mph, S100%10000m1000hPa96%
30-Jun-2024 00:00Light Rain16°C11 mph, S100%10000m999hPa97%
30-Jun-2024 03:00Light Rain17°C9 mph, SW100%927m999hPa99%
30-Jun-2024 06:00Moderate Rain13°C9 mph, NW100%645m1001hPa98%
30-Jun-2024 09:00Light Rain9°C11 mph, NW100%10000m1005hPa96%
30-Jun-2024 12:00Light Rain8°C11 mph, NW100%10000m1009hPa94%
30-Jun-2024 15:00Overcast Clouds14°C13 mph, NW100%10000m1011hPa62%
30-Jun-2024 18:00Overcast Clouds14°C11 mph, NW96%10000m1014hPa52%
30-Jun-2024 21:00Broken Clouds18°C13 mph, N78%10000m1014hPa38%